PAFR METAR and TAF weather

Enter ICAO airport designator
Station Type Date Time Source
PAFR METAR 2019/12/12 08:58 UTC NOAA

PAFR 120858Z AUTO 00000KT 10SM FEW070 M04/M04 A2924 RMK AO2 SLPNO T10391044 410251083 57012 FZRANO $


Station Type Date Time Source
PAFR Decoded METAR 2019/12/12 08:58 UTC NOAA

Ft. Richardson / Bryant U. S. Army Heliport, Ak, AK, United States (PAFR) 61-16N 149-39W 115M
Dec 12, 2019 - 03:58 AM EST / 2019.12.12 0858 UTC
Wind: Calm:0
Visibility: 10 mile(s):0
Sky conditions: mostly clear
Temperature: 25.0 F (-3.9 C)
Dew Point: 24.1 F (-4.4 C)
Relative Humidity: 96%
Pressure (altimeter): 29.24 in. Hg (990 hPa)
Pressure tendency: 0.04 inches (1.2 hPa) lower than three hours ago
ob: PAFR 120858Z AUTO 00000KT 10SM FEW070 M04/M04 A2924 RMK AO2 SLPNO T10391044 410251083 57012 FZRANO
cycle: 9

Station Type Date Time Source
PAFR TAF UTC NOAA

Error!

Example: see airport list